EFVA

Details ICAO EFVA (VAA)
Name VAASA
Region Finland
Timezone Europe/Helsinki (UTC+3.0)
Plans Departing 51
Arriving 37
Stats Elevation 19 ft / 6 m (AMSL)
Location 63.050650° 21.762173°
Runways 1
Magnetic Variation 8.519° E
Sunrise 2018-05-24 01:06:29 UTC / 2018-05-24 04:06:29 Local
Sunset 2018-05-24 19:55:57 UTC / 2018-05-24 22:55:57 Local
Advertisement - Login to hide

Runways

ID Width Length Bearing (true) Bearing (mag) Surface Threshold Offset Overrun Length
16 157 ft / 48 m 8,707 ft / 2,654 m 163.02° 154.50° Asphalt 0 ft / 0 m 0 ft / 0 m
34 157 ft / 48 m 8,707 ft / 2,654 m 343.03° 334.51° Asphalt 525 ft / 160 m 0 ft / 0 m

Approach Navaids

Runway Type Ident Frequency Range Bearing (true) Bearing (mag) Slope Elevation
16 Localiser VA 108.50 MHz 18 nm / 33 km 163.20° 154.68° - 19 ft / 6 m (AMSL)
16 Glidescope VA 108.50 MHz 10 nm / 19 km 163.03° 154.51° 3.00° 19 ft / 6 m (AMSL)
16 DME VA 108.50 MHz 18 nm / 33 km - - - 78 ft / 24 m (AMSL)

Map

Weather


0- 5 10 15 20 25 30 35+ Temperature / ° C

Clouds and Precipitation
Forecast for 2018-05-24 12:00 UTC. Updated 3 hours ago

Ground ~20,000 ft ~40,000 ft Winds

METAR

EFVA 241350Z AUTO 32009KT 270V340 CAVOK 18/M01 Q1029

TAF

TAF EFVA 241123Z 2412/2512 27008KT CAVOK

Frequencies

Tower 119.70 MHz TWR
Tower 119.30 MHz TWR
Warning: Do not use this data for real-world aviation or navigation. No guarantee of current accuracy is given.